Time;durP1;ratioP1;P1;durP2;ratioP2;P2;SDS_P1;SDS_P2;PMS_P1;PMS_P2;Temp;Humidity;BMP_temperature;BMP_pressure;BME280_temperature;BME280_humidity;BME280_pressure;Samples;Min_cycle;Max_cycle;Signal;HPM_P1;HPM_P2
2022/08/02 00:00:14;;;;;;;;;;;23.80;72.10;;;;;;4956187;29;19991;-96
2022/08/02 00:02:43;;;;;;;;;;;23.70;70.70;;;;;;4938581;29;19949;-96
2022/08/02 00:05:09;;;;;;;;;;;23.60;69.90;;;;;;4956150;29;20025;-96
2022/08/02 00:07:35;;;;;;;;;;;23.60;70.40;;;;;;4956112;29;19977;-96
2022/08/02 00:10:01;;;;;;;;;;;23.60;71.30;;;;;;4956099;29;19952;-96
2022/08/02 00:12:26;;;;;;;;;;;23.70;71.30;;;;;;4955786;29;19943;-96
2022/08/02 00:14:52;;;;;;;;;;;23.80;71.70;;;;;;4956021;28;19947;-96
2022/08/02 00:17:17;;;;;;;;;;;23.90;70.30;;;;;;4959848;29;20352;-96
2022/08/02 00:19:43;;;;;;;;;;;24.00;69.30;;;;;;4942477;29;19976;-96
2022/08/02 00:22:09;;;;;;;;;;;24.20;68.30;;;;;;4959839;29;19954;-96
2022/08/02 00:24:34;;;;;;;;;;;24.30;67.40;;;;;;4959868;29;20417;-96
2022/08/02 00:27:02;;;;;;;;;;;24.40;66.80;;;;;;4959872;29;19949;-96
2022/08/02 00:29:30;;;;;;;;;;;24.50;66.20;;;;;;4959865;29;19948;-96
2022/08/02 00:31:56;;;;;;;;;;;24.60;65.50;;;;;;4942316;29;19985;-96
2022/08/02 00:34:22;;;;;;;;;;;24.60;64.90;;;;;;4959742;29;19951;-96
2022/08/02 00:36:48;;;;;;;;;;;24.70;64.70;;;;;;4942131;29;19959;-96
2022/08/02 00:39:13;;;;;;;;;;;24.80;64.00;;;;;;4959943;29;19940;-96
2022/08/02 00:41:49;;;;;;;;;;;24.80;63.80;;;;;;4942151;29;20045;-96
2022/08/02 00:44:15;;;;;;;;;;;24.90;63.70;;;;;;4942113;29;20000;-96
2022/08/02 00:46:41;;;;;;;;;;;25.00;63.50;;;;;;4959628;29;19991;-96
2022/08/02 00:49:07;;;;;;;;;;;25.00;63.20;;;;;;4959269;29;20356;-96
2022/08/02 00:51:32;;;;;;;;;;;25.10;63.10;;;;;;4959471;29;20427;-96
2022/08/02 00:53:58;;;;;;;;;;;25.20;63.00;;;;;;4959198;29;20020;-96
2022/08/02 00:56:24;;;;;;;;;;;25.20;62.70;;;;;;4959320;29;19985;-96
2022/08/02 00:58:49;;;;;;;;;;;25.30;62.50;;;;;;4942125;29;19988;-96
2022/08/02 01:01:15;;;;;;;;;;;25.30;62.40;;;;;;4959213;29;19940;-96
2022/08/02 01:03:40;;;;;;;;;;;25.30;62.80;;;;;;4959148;29;19971;-96
2022/08/02 01:06:06;;;;;;;;;;;25.30;63.00;;;;;;4958926;29;19991;-96
2022/08/02 01:08:31;;;;;;;;;;;25.20;63.20;;;;;;4959143;29;20453;-96
2022/08/02 01:10:57;;;;;;;;;;;25.20;63.10;;;;;;4941592;29;19949;-96
2022/08/02 01:13:23;;;;;;;;;;;25.30;63.10;;;;;;4958860;29;19943;-96
2022/08/02 01:15:54;;;;;;;;;;;25.30;63.20;;;;;;4959271;29;20013;-96
2022/08/02 01:18:23;;;;;;;;;;;25.40;63.10;;;;;;4958674;29;19940;-96
2022/08/02 01:21:00;;;;;;;;;;;25.40;63.30;;;;;;4958877;29;19975;-96
2022/08/02 01:23:52;;;;;;;;;;;25.50;63.30;;;;;;4958821;29;20000;-96
2022/08/02 01:26:38;;;;;;;;;;;25.50;63.10;;;;;;4954357;28;19945;-96
2022/08/02 01:29:12;;;;;;;;;;;25.50;62.90;;;;;;4959149;29;20443;-96
2022/08/02 01:31:43;;;;;;;;;;;25.60;62.40;;;;;;4958874;29;20448;-96
2022/08/02 01:34:12;;;;;;;;;;;25.60;61.90;;;;;;4958814;29;19954;-96
2022/08/02 01:36:42;;;;;;;;;;;25.60;61.80;;;;;;4958310;29;19976;-96
2022/08/02 01:39:10;;;;;;;;;;;25.60;60.70;;;;;;4958618;29;20399;-96
2022/08/02 01:41:37;;;;;;;;;;;25.50;60.20;;;;;;4958260;29;19944;-96
2022/08/02 01:44:04;;;;;;;;;;;25.50;59.10;;;;;;4958575;29;19982;-96
2022/08/02 01:46:30;;;;;;;;;;;25.40;58.10;;;;;;4958665;29;20004;-96
2022/08/02 01:48:58;;;;;;;;;;;25.40;57.80;;;;;;4958714;29;19943;-96
2022/08/02 01:54:13;;;;;;;;;;;25.30;56.90;;;;;;4958836;29;19993;-96
2022/08/02 01:56:39;;;;;;;;;;;25.30;56.20;;;;;;4959845;29;19967;-96
2022/08/02 01:59:07;;;;;;;;;;;25.30;56.00;;;;;;4959018;29;19940;-96
2022/08/02 02:01:35;;;;;;;;;;;25.20;55.60;;;;;;4958457;29;19948;-96
2022/08/02 02:04:01;;;;;;;;;;;25.20;55.60;;;;;;4957948;29;20075;-96
2022/08/02 02:06:27;;;;;;;;;;;25.20;55.70;;;;;;4958348;29;19937;-96
2022/08/02 02:08:53;;;;;;;;;;;25.10;55.70;;;;;;4958057;29;19944;-96
2022/08/02 02:11:20;;;;;;;;;;;25.10;55.10;;;;;;4940492;29;20004;-96
2022/08/02 02:13:46;;;;;;;;;;;25.00;54.90;;;;;;4958237;29;19944;-96
2022/08/02 02:16:13;;;;;;;;;;;25.00;54.60;;;;;;4957648;29;20306;-96
2022/08/02 02:18:40;;;;;;;;;;;24.90;54.40;;;;;;4958217;29;19949;-96
2022/08/02 02:21:06;;;;;;;;;;;24.90;54.50;;;;;;4957605;29;20344;-96
2022/08/02 02:23:32;;;;;;;;;;;24.80;54.30;;;;;;4957749;29;20524;-96
2022/08/02 02:25:58;;;;;;;;;;;24.70;54.60;;;;;;4957585;29;20027;-96
2022/08/02 02:28:29;;;;;;;;;;;24.70;54.90;;;;;;4958039;29;19966;-96
2022/08/02 02:31:14;;;;;;;;;;;24.60;54.90;;;;;;4957405;29;19943;-96
2022/08/02 02:33:43;;;;;;;;;;;24.50;55.00;;;;;;4957622;29;19972;-96
2022/08/02 02:36:09;;;;;;;;;;;24.40;54.90;;;;;;4957223;29;20014;-96
2022/08/02 02:38:35;;;;;;;;;;;24.30;54.90;;;;;;4957100;28;19947;-96
2022/08/02 02:41:02;;;;;;;;;;;24.30;55.10;;;;;;4957162;29;20048;-96
2022/08/02 02:43:30;;;;;;;;;;;24.30;54.90;;;;;;4957239;29;19968;-96
2022/08/02 02:45:55;;;;;;;;;;;24.30;55.10;;;;;;4957267;29;20467;-96
2022/08/02 02:48:21;;;;;;;;;;;24.30;55.10;;;;;;4957377;29;20035;-96
2022/08/02 02:50:47;;;;;;;;;;;24.30;54.90;;;;;;4939740;29;20036;-96
2022/08/02 02:53:15;;;;;;;;;;;24.20;54.90;;;;;;4957043;29;20314;-96
2022/08/02 02:55:42;;;;;;;;;;;24.30;55.10;;;;;;4957340;29;20369;-96
2022/08/02 02:58:08;;;;;;;;;;;24.20;55.30;;;;;;4956763;29;19972;-96
2022/08/02 03:03:17;;;;;;;;;;;24.20;56.40;;;;;;4957217;29;19969;-96
2022/08/02 03:05:44;;;;;;;;;;;24.10;56.40;;;;;;4956767;29;19942;-96
2022/08/02 03:08:09;;;;;;;;;;;24.10;56.20;;;;;;4939492;29;19949;-96
2022/08/02 03:10:35;;;;;;;;;;;24.10;56.50;;;;;;4956936;29;20310;-96
2022/08/02 03:13:01;;;;;;;;;;;24.20;56.50;;;;;;4956586;29;19963;-96
2022/08/02 03:15:27;;;;;;;;;;;24.20;56.60;;;;;;4957209;29;19966;-96
2022/08/02 03:17:53;;;;;;;;;;;24.20;57.40;;;;;;4956530;29;19943;-96
2022/08/02 03:20:19;;;;;;;;;;;24.20;59.20;;;;;;4956735;29;19951;-96
2022/08/02 03:22:45;;;;;;;;;;;24.10;61.00;;;;;;4956423;29;20386;-96
2022/08/02 03:25:11;;;;;;;;;;;23.90;62.50;;;;;;4956914;29;19987;-96
2022/08/02 03:27:37;;;;;;;;;;;23.60;64.50;;;;;;4956352;29;19944;-96
2022/08/02 03:30:04;;;;;;;;;;;23.30;66.30;;;;;;4956844;29;19943;-96
2022/08/02 03:32:30;;;;;;;;;;;23.10;68.50;;;;;;4956251;29;19961;-96
2022/08/02 03:34:55;;;;;;;;;;;22.90;68.90;;;;;;4956831;29;20038;-96
2022/08/02 03:37:21;;;;;;;;;;;22.80;69.20;;;;;;4956423;29;19956;-96
2022/08/02 03:39:48;;;;;;;;;;;22.70;70.00;;;;;;4938955;29;19946;-96
2022/08/02 03:42:14;;;;;;;;;;;22.70;69.90;;;;;;4956385;29;19941;-96
2022/08/02 03:44:40;;;;;;;;;;;22.50;71.10;;;;;;4956052;29;19991;-96
2022/08/02 03:47:06;;;;;;;;;;;22.30;72.30;;;;;;4956651;29;20381;-96
2022/08/02 03:49:32;;;;;;;;;;;22.30;72.90;;;;;;4955998;28;19942;-96
2022/08/02 03:51:58;;;;;;;;;;;22.30;73.30;;;;;;4956532;29;20436;-96
2022/08/02 03:54:24;;;;;;;;;;;22.20;73.10;;;;;;4955800;29;20078;-96
2022/08/02 03:56:50;;;;;;;;;;;22.10;73.30;;;;;;4955964;29;20417;-96
2022/08/02 03:59:15;;;;;;;;;;;22.10;73.20;;;;;;4956212;29;19941;-96
2022/08/02 04:01:41;;;;;;;;;;;22.10;72.90;;;;;;4956218;29;20443;-96
2022/08/02 04:04:07;;;;;;;;;;;22.10;73.30;;;;;;4956184;29;19959;-96
2022/08/02 04:06:32;;;;;;;;;;;22.20;73.10;;;;;;4938544;29;20279;-96
2022/08/02 04:08:58;;;;;;;;;;;22.20;72.90;;;;;;4956374;29;19941;-96
2022/08/02 04:11:29;;;;;;;;;;;22.10;73.30;;;;;;4955660;29;19972;-96
2022/08/02 04:13:55;;;;;;;;;;;22.10;73.70;;;;;;4956244;29;20368;-96
2022/08/02 04:16:22;;;;;;;;;;;22.10;74.40;;;;;;4955771;29;20051;-96
2022/08/02 04:18:54;;;;;;;;;;;22.10;74.70;;;;;;4956024;29;19968;-96
2022/08/02 04:21:22;;;;;;;;;;;22.00;76.10;;;;;;4955720;29;20041;-96
2022/08/02 04:23:49;;;;;;;;;;;21.90;76.70;;;;;;4956197;29;20010;-96
2022/08/02 04:26:15;;;;;;;;;;;21.80;76.80;;;;;;4955616;29;19942;-96
2022/08/02 04:28:41;;;;;;;;;;;21.80;75.70;;;;;;4956505;29;19942;-96
2022/08/02 04:31:07;;;;;;;;;;;21.60;75.60;;;;;;4955640;29;19998;-96
2022/08/02 04:33:33;;;;;;;;;;;21.50;76.60;;;;;;4956191;29;19972;-96
2022/08/02 04:35:59;;;;;;;;;;;21.50;76.70;;;;;;4955483;29;19986;-96
2022/08/02 04:38:25;;;;;;;;;;;21.50;76.70;;;;;;4955853;29;19982;-96
2022/08/02 04:40:51;;;;;;;;;;;21.30;76.80;;;;;;4955556;29;20005;-96
2022/08/02 04:43:17;;;;;;;;;;;21.20;77.90;;;;;;4955992;29;20018;-96
2022/08/02 04:45:43;;;;;;;;;;;21.10;78.60;;;;;;4955726;29;20028;-96
2022/08/02 04:48:09;;;;;;;;;;;21.10;79.50;;;;;;4938261;29;19989;-96
2022/08/02 04:50:34;;;;;;;;;;;21.20;79.40;;;;;;4955717;29;19976;-96
2022/08/02 04:55:29;;;;;;;;;;;21.30;79.30;;;;;;4870549;29;1866197;-95
2022/08/02 04:57:56;;;;;;;;;;;21.40;79.90;;;;;;4936434;29;19970;-96
2022/08/02 05:00:22;;;;;;;;;;;21.40;79.30;;;;;;4936282;29;19940;-95
2022/08/02 05:02:48;;;;;;;;;;;21.50;79.10;;;;;;4937545;29;19951;-96
2022/08/02 05:05:14;;;;;;;;;;;21.50;79.10;;;;;;4938523;29;19939;-96
2022/08/02 05:07:40;;;;;;;;;;;21.50;79.70;;;;;;4939731;29;20364;-96
2022/08/02 05:10:05;;;;;;;;;;;21.40;80.50;;;;;;4939974;29;19953;-96
2022/08/02 05:12:31;;;;;;;;;;;21.50;80.60;;;;;;4939649;29;19988;-96
2022/08/02 05:14:56;;;;;;;;;;;21.40;80.80;;;;;;4938245;29;19945;-96
2022/08/02 05:17:22;;;;;;;;;;;21.30;79.80;;;;;;4939821;29;20506;-96
2022/08/02 05:19:47;;;;;;;;;;;21.30;79.60;;;;;;4939881;29;20023;-96
2022/08/02 05:22:13;;;;;;;;;;;21.10;80.10;;;;;;4938252;29;20403;-96
2022/08/02 05:24:38;;;;;;;;;;;21.20;81.40;;;;;;4937692;29;19993;-96
2022/08/02 05:27:04;;;;;;;;;;;21.20;81.40;;;;;;4939862;29;19985;-96
2022/08/02 05:29:30;;;;;;;;;;;21.30;82.30;;;;;;4938703;29;19947;-96
2022/08/02 05:31:55;;;;;;;;;;;21.30;81.20;;;;;;4939031;29;20452;-96
2022/08/02 05:34:21;;;;;;;;;;;21.30;81.80;;;;;;4939233;29;20341;-96
2022/08/02 05:36:46;;;;;;;;;;;21.20;82.50;;;;;;4939462;29;19960;-96
2022/08/02 05:39:12;;;;;;;;;;;21.20;82.00;;;;;;4939104;29;19947;-95
2022/08/02 05:41:45;;;;;;;;;;;21.10;82.40;;;;;;4944006;29;20009;-96
2022/08/02 05:44:14;;;;;;;;;;;21.10;83.10;;;;;;4957525;23;20010;-96
2022/08/02 05:46:39;;;;;;;;;;;21.00;84.10;;;;;;4979621;23;20958;-96
2022/08/02 05:49:05;;;;;;;;;;;21.00;83.10;;;;;;4991054;28;19949;-96
2022/08/02 05:51:50;;;;;;;;;;;21.00;83.30;;;;;;4982755;28;19939;-96
2022/08/02 05:54:22;;;;;;;;;;;21.10;83.30;;;;;;4982107;28;19938;-96
2022/08/02 05:56:55;;;;;;;;;;;21.10;84.30;;;;;;4977047;28;19945;-96
2022/08/02 05:59:26;;;;;;;;;;;21.00;84.00;;;;;;4979798;28;19956;-96
2022/08/02 06:01:54;;;;;;;;;;;21.10;84.40;;;;;;4977624;28;19973;-96
2022/08/02 06:04:24;;;;;;;;;;;21.20;84.30;;;;;;4977471;28;19975;-96
2022/08/02 06:06:52;;;;;;;;;;;21.10;84.10;;;;;;4978509;28;19953;-96
2022/08/02 06:09:18;;;;;;;;;;;20.90;84.00;;;;;;4978861;28;19943;-96
2022/08/02 06:11:46;;;;;;;;;;;20.80;84.70;;;;;;4977317;28;19935;-96
2022/08/02 06:14:12;;;;;;;;;;;20.50;85.00;;;;;;4976062;28;19964;-96
2022/08/02 06:16:38;;;;;;;;;;;20.40;84.90;;;;;;4979327;28;19938;-96
2022/08/02 06:19:04;;;;;;;;;;;20.40;85.20;;;;;;4981708;28;20395;-96
2022/08/02 06:21:30;;;;;;;;;;;20.40;85.70;;;;;;4983426;28;20005;-96
2022/08/02 06:23:57;;;;;;;;;;;20.50;86.30;;;;;;4980677;28;20017;-96
2022/08/02 06:26:23;;;;;;;;;;;20.50;85.50;;;;;;4981353;28;19948;-96
2022/08/02 06:28:50;;;;;;;;;;;20.50;85.50;;;;;;4980431;28;20045;-96
2022/08/02 06:31:16;;;;;;;;;;;20.50;86.00;;;;;;4983595;28;19937;-96
2022/08/02 06:33:42;;;;;;;;;;;20.70;84.90;;;;;;4973678;28;19963;-96
2022/08/02 06:36:19;;;;;;;;;;;20.80;83.90;;;;;;4969246;28;20007;-96
2022/08/02 06:38:52;;;;;;;;;;;20.90;83.50;;;;;;4957042;29;19985;-96
2022/08/02 06:41:18;;;;;;;;;;;21.00;83.30;;;;;;4957164;28;19972;-95
2022/08/02 06:43:44;;;;;;;;;;;20.70;85.60;;;;;;4955557;29;19942;-96
2022/08/02 06:46:10;;;;;;;;;;;20.30;87.00;;;;;;4956929;29;19993;-96
2022/08/02 06:48:35;;;;;;;;;;;20.10;87.90;;;;;;4956779;28;19978;-96
2022/08/02 06:51:04;;;;;;;;;;;20.10;87.60;;;;;;4955425;29;19947;-96
2022/08/02 06:53:30;;;;;;;;;;;20.20;87.50;;;;;;4958076;28;19946;-96
2022/08/02 06:55:56;;;;;;;;;;;20.30;87.80;;;;;;4960457;29;20048;-96
2022/08/02 06:58:21;;;;;;;;;;;20.30;88.20;;;;;;4956782;28;20360;-96
2022/08/02 07:00:47;;;;;;;;;;;20.40;88.50;;;;;;4956217;29;20341;-96
2022/08/02 07:03:13;;;;;;;;;;;20.60;88.60;;;;;;4956723;28;19992;-96
2022/08/02 07:05:39;;;;;;;;;;;20.80;88.70;;;;;;4956438;29;20412;-96
2022/08/02 07:08:05;;;;;;;;;;;20.90;88.60;;;;;;4956093;28;19995;-96
2022/08/02 07:10:30;;;;;;;;;;;21.00;88.40;;;;;;4956115;28;19980;-96
2022/08/02 07:12:56;;;;;;;;;;;20.90;86.20;;;;;;4955968;29;20011;-96
2022/08/02 07:15:21;;;;;;;;;;;21.10;86.60;;;;;;4956463;29;20447;-96
2022/08/02 07:17:47;;;;;;;;;;;21.30;86.80;;;;;;4956137;29;19950;-96
2022/08/02 07:20:13;;;;;;;;;;;21.40;86.40;;;;;;4954541;29;19945;-96
2022/08/02 07:22:39;;;;;;;;;;;21.50;85.40;;;;;;4956357;28;19953;-96
2022/08/02 07:25:06;;;;;;;;;;;21.60;86.00;;;;;;4955889;28;20098;-96
2022/08/02 07:27:31;;;;;;;;;;;21.80;85.90;;;;;;4955849;28;19945;-96
2022/08/02 07:29:58;;;;;;;;;;;22.00;83.40;;;;;;4956075;28;19954;-96
2022/08/02 07:32:24;;;;;;;;;;;22.10;83.00;;;;;;4956028;28;19940;-96
2022/08/02 07:34:50;;;;;;;;;;;22.30;83.10;;;;;;4950762;28;19976;-96
2022/08/02 07:37:16;;;;;;;;;;;22.30;81.90;;;;;;4955027;28;20048;-96
2022/08/02 07:39:41;;;;;;;;;;;22.50;81.50;;;;;;4955991;28;20432;-96
2022/08/02 07:42:07;;;;;;;;;;;22.70;81.00;;;;;;4955748;29;19941;-96
2022/08/02 07:44:36;;;;;;;;;;;23.00;80.70;;;;;;4955582;29;19962;-96
2022/08/02 07:47:02;;;;;;;;;;;23.20;79.90;;;;;;4955642;29;19986;-96
2022/08/02 07:49:28;;;;;;;;;;;23.30;79.10;;;;;;4956097;28;19990;-96
2022/08/02 07:51:53;;;;;;;;;;;23.50;78.40;;;;;;4955585;28;20352;-96
2022/08/02 07:54:19;;;;;;;;;;;23.70;77.70;;;;;;4954522;29;20468;-96
2022/08/02 07:56:45;;;;;;;;;;;23.80;77.00;;;;;;4955861;28;20350;-96
2022/08/02 07:59:10;;;;;;;;;;;23.90;74.20;;;;;;4955763;29;19944;-96
2022/08/02 08:01:36;;;;;;;;;;;23.90;74.50;;;;;;4955876;29;19947;-96
2022/08/02 08:04:02;;;;;;;;;;;23.90;75.60;;;;;;4956057;29;19960;-96
2022/08/02 08:06:28;;;;;;;;;;;23.90;76.70;;;;;;4955806;28;19936;-96
2022/08/02 08:08:54;;;;;;;;;;;24.00;75.20;;;;;;4955854;28;19942;-96
2022/08/02 08:11:19;;;;;;;;;;;24.00;75.70;;;;;;4955781;28;19951;-96
2022/08/02 08:13:45;;;;;;;;;;;24.00;72.90;;;;;;4955775;29;19937;-96
2022/08/02 08:16:11;;;;;;;;;;;23.90;73.60;;;;;;4955906;29;19949;-96
2022/08/02 08:18:36;;;;;;;;;;;23.90;74.40;;;;;;4960974;29;19947;-96
2022/08/02 08:21:02;;;;;;;;;;;24.00;73.80;;;;;;4970666;29;20431;-96
2022/08/02 08:23:28;;;;;;;;;;;24.00;73.80;;;;;;4966142;29;19967;-96
2022/08/02 08:25:54;;;;;;;;;;;24.20;74.10;;;;;;4957710;29;19945;-96
2022/08/02 08:28:19;;;;;;;;;;;24.30;73.70;;;;;;4960824;29;19947;-96
2022/08/02 08:30:46;;;;;;;;;;;24.50;74.30;;;;;;4955945;29;20014;-95
2022/08/02 08:33:12;;;;;;;;;;;24.60;72.40;;;;;;4955546;29;19945;-96
2022/08/02 08:35:37;;;;;;;;;;;24.70;71.90;;;;;;4954924;28;19964;-96
2022/08/02 08:38:03;;;;;;;;;;;24.80;73.70;;;;;;4958666;29;20065;-96
2022/08/02 08:40:29;;;;;;;;;;;24.60;73.90;;;;;;4960378;29;19997;-96
2022/08/02 08:42:54;;;;;;;;;;;24.60;75.50;;;;;;4960766;28;19943;-96
2022/08/02 08:45:20;;;;;;;;;;;24.50;73.10;;;;;;4961035;28;19943;-96
2022/08/02 08:47:49;;;;;;;;;;;24.40;73.70;;;;;;4967182;29;19944;-96
2022/08/02 08:50:19;;;;;;;;;;;24.50;72.80;;;;;;4963533;29;19997;-96
2022/08/02 08:52:50;;;;;;;;;;;24.60;70.00;;;;;;4958804;28;19963;-95
2022/08/02 08:55:16;;;;;;;;;;;24.80;69.90;;;;;;4958707;28;19934;-96
2022/08/02 08:57:42;;;;;;;;;;;24.90;70.20;;;;;;4958309;28;20341;-96
2022/08/02 09:00:11;;;;;;;;;;;25.00;67.20;;;;;;4957553;28;19936;-96
2022/08/02 09:02:39;;;;;;;;;;;25.20;66.40;;;;;;4958162;28;19933;-96
2022/08/02 09:05:05;;;;;;;;;;;25.30;68.10;;;;;;4958216;28;19998;-96
2022/08/02 09:07:31;;;;;;;;;;;25.60;65.70;;;;;;4958111;29;19930;-96
2022/08/02 09:09:57;;;;;;;;;;;25.80;66.50;;;;;;4958314;29;19986;-96
2022/08/02 09:12:23;;;;;;;;;;;26.10;64.10;;;;;;4958709;29;19970;-96
2022/08/02 09:14:49;;;;;;;;;;;26.30;62.40;;;;;;4957994;29;20026;-96
2022/08/02 09:17:15;;;;;;;;;;;26.50;61.80;;;;;;4959967;28;19933;-96
2022/08/02 09:19:40;;;;;;;;;;;26.60;59.40;;;;;;4959476;28;20003;-96
2022/08/02 09:22:07;;;;;;;;;;;26.60;60.40;;;;;;4957247;29;19977;-96
2022/08/02 09:25:58;;;;;;;;;;;26.60;61.70;;;;;;5111591;27;19943;-96
2022/08/02 09:28:31;;;;;;;;;;;26.60;59.40;;;;;;5110261;28;19987;-96
2022/08/02 09:31:02;;;;;;;;;;;26.50;59.40;;;;;;5111381;28;20027;-96
2022/08/02 09:33:28;;;;;;;;;;;26.50;61.10;;;;;;5111782;28;19941;-96
2022/08/02 09:36:01;;;;;;;;;;;26.50;61.80;;;;;;5110392;28;19932;-96
2022/08/02 09:38:27;;;;;;;;;;;26.50;60.00;;;;;;5112512;28;19990;-96
2022/08/02 09:40:53;;;;;;;;;;;26.60;62.10;;;;;;5111888;28;19932;-96
2022/08/02 09:43:19;;;;;;;;;;;26.70;60.50;;;;;;5112100;28;20398;-96
2022/08/02 09:45:45;;;;;;;;;;;26.70;59.60;;;;;;5110826;28;19942;-96
2022/08/02 09:48:11;;;;;;;;;;;26.80;56.90;;;;;;5109637;28;19940;-96
2022/08/02 09:50:38;;;;;;;;;;;26.80;58.80;;;;;;5108930;28;19940;-96
2022/08/02 09:53:04;;;;;;;;;;;26.90;58.40;;;;;;5109066;28;19949;-96
2022/08/02 09:55:30;;;;;;;;;;;27.00;54.40;;;;;;5109647;28;19939;-96
2022/08/02 09:57:55;;;;;;;;;;;27.00;55.00;;;;;;5110804;28;19998;-96
2022/08/02 10:00:21;;;;;;;;;;;27.10;55.60;;;;;;5109917;28;19970;-96
2022/08/02 10:03:08;;;;;;;;;;;27.10;56.80;;;;;;5111384;28;19990;-96
2022/08/02 10:05:47;;;;;;;;;;;27.10;55.30;;;;;;5110184;28;20010;-96
2022/08/02 10:08:13;;;;;;;;;;;27.20;55.90;;;;;;5111069;28;19938;-96
2022/08/02 10:10:39;;;;;;;;;;;27.30;50.70;;;;;;5109826;28;19944;-96
2022/08/02 10:13:05;;;;;;;;;;;27.30;51.10;;;;;;5110899;28;19935;-96
2022/08/02 10:15:31;;;;;;;;;;;27.20;50.70;;;;;;5111115;28;19940;-96
2022/08/02 10:17:56;;;;;;;;;;;27.30;52.80;;;;;;5110901;28;19935;-96
2022/08/02 10:20:22;;;;;;;;;;;27.40;51.60;;;;;;5109654;28;19940;-96
2022/08/02 10:22:49;;;;;;;;;;;27.60;51.30;;;;;;5111123;28;20021;-96
2022/08/02 10:25:15;;;;;;;;;;;27.70;49.80;;;;;;5111396;28;19944;-96
2022/08/02 10:27:42;;;;;;;;;;;27.70;49.60;;;;;;5111393;28;19948;-96
2022/08/02 10:30:08;;;;;;;;;;;27.70;50.10;;;;;;5111936;28;19945;-96
2022/08/02 10:32:55;;;;;;;;;;;27.60;51.00;;;;;;5110101;28;19943;-96
2022/08/02 10:35:22;;;;;;;;;;;27.70;51.60;;;;;;5108454;28;19968;-96
2022/08/02 10:37:50;;;;;;;;;;;27.80;51.80;;;;;;5095923;28;19954;-96
2022/08/02 10:40:27;;;;;;;;;;;27.90;52.10;;;;;;5097585;28;19934;-96
2022/08/02 10:44:31;;;;;;;;;;;28.10;49.70;;;;;;5111786;27;19945;-96
2022/08/02 10:47:17;;;;;;;;;;;28.20;48.30;;;;;;5110708;28;19940;-96
2022/08/02 10:49:49;;;;;;;;;;;28.40;49.80;;;;;;5112459;28;20411;-96
2022/08/02 10:52:15;;;;;;;;;;;28.50;49.90;;;;;;5111290;28;19930;-96
2022/08/02 10:54:55;;;;;;;;;;;28.70;48.60;;;;;;5111940;28;19937;-96
2022/08/02 10:57:23;;;;;;;;;;;28.90;50.50;;;;;;5110236;28;19942;-96
2022/08/02 11:00:15;;;;;;;;;;;29.00;48.10;;;;;;5111635;28;19938;-96
2022/08/02 11:02:42;;;;;;;;;;;29.00;47.10;;;;;;5094513;28;19962;-96
2022/08/02 11:05:17;;;;;;;;;;;29.10;49.60;;;;;;5111460;28;20398;-96
2022/08/02 11:07:45;;;;;;;;;;;29.20;48.30;;;;;;5111172;28;19942;-96
2022/08/02 11:11:28;;;;;;;;;;;29.30;48.30;;;;;;5112285;27;19943;-96
2022/08/02 11:14:07;;;;;;;;;;;29.30;50.40;;;;;;5110473;28;20375;-96
2022/08/02 11:16:51;;;;;;;;;;;29.20;49.10;;;;;;5110426;28;20372;-95
2022/08/02 11:19:17;;;;;;;;;;;29.10;47.60;;;;;;5111856;28;20060;-96
2022/08/02 11:21:58;;;;;;;;;;;29.00;48.40;;;;;;5110171;28;20407;-96
2022/08/02 11:24:28;;;;;;;;;;;29.10;50.00;;;;;;5110231;28;20006;-95
2022/08/02 11:26:54;;;;;;;;;;;29.30;46.20;;;;;;5111734;28;19954;-96
2022/08/02 11:30:59;;;;;;;;;;;29.50;47.40;;;;;;5111677;27;20328;-96
2022/08/02 11:33:32;;;;;;;;;;;29.70;45.40;;;;;;5111445;28;19950;-96
2022/08/02 11:36:05;;;;;;;;;;;30.00;45.40;;;;;;5111407;28;19949;-96
2022/08/02 11:40:23;;;;;;;;;;;30.00;45.10;;;;;;5091110;27;19942;-96
2022/08/02 12:05:00;;;;;;;;;;;31.70;41.50;;;;;;5111038;27;19963;-96
2022/08/02 12:07:26;;;;;;;;;;;32.30;40.30;;;;;;5111675;28;20029;-96
2022/08/02 12:09:52;;;;;;;;;;;32.20;39.40;;;;;;5111605;28;20266;-96
2022/08/02 12:12:17;;;;;;;;;;;32.50;38.30;;;;;;5111655;28;19937;-96
2022/08/02 12:14:44;;;;;;;;;;;32.70;38.50;;;;;;5111779;28;20293;-96
2022/08/02 12:19:53;;;;;;;;;;;32.90;37.00;;;;;;5111876;28;20035;-96
2022/08/02 12:22:23;;;;;;;;;;;32.90;36.60;;;;;;5111980;28;19982;-96
2022/08/02 12:31:47;;;;;;;;;;;32.60;37.40;;;;;;5111414;27;20322;-96
2022/08/02 12:46:42;;;;;;;;;;;32.50;38.90;;;;;;5096319;28;20319;-96
2022/08/02 12:49:18;;;;;;;;;;;32.50;38.70;;;;;;5093804;28;20042;-96
2022/08/02 12:51:46;;;;;;;;;;;32.60;37.60;;;;;;5093810;28;20460;-96
2022/08/02 12:54:16;;;;;;;;;;;32.60;37.40;;;;;;5092045;28;20047;-96
2022/08/02 12:56:42;;;;;;;;;;;33.20;37.90;;;;;;5092868;28;19942;-96
2022/08/02 12:59:08;;;;;;;;;;;33.60;37.50;;;;;;5094481;28;19970;-96
2022/08/02 13:01:34;;;;;;;;;;;34.70;35.00;;;;;;5102247;28;19936;-96
2022/08/02 13:06:41;;;;;;;;;;;35.30;33.80;;;;;;5110309;27;19965;-96
2022/08/02 13:09:14;;;;;;;;;;;36.20;32.90;;;;;;5113287;28;20033;-96
2022/08/02 13:11:41;;;;;;;;;;;36.70;32.70;;;;;;5115119;28;19980;-96
2022/08/02 13:14:06;;;;;;;;;;;36.50;32.70;;;;;;5115167;28;19938;-96
2022/08/02 13:16:32;;;;;;;;;;;37.20;31.90;;;;;;5112286;28;19987;-96
2022/08/02 13:18:58;;;;;;;;;;;37.70;30.20;;;;;;5112673;28;19942;-96
2022/08/02 13:21:25;;;;;;;;;;;36.90;30.00;;;;;;5110003;28;20034;-96
2022/08/02 13:23:50;;;;;;;;;;;36.60;30.60;;;;;;5114635;28;20308;-96
2022/08/02 13:26:16;;;;;;;;;;;36.40;32.90;;;;;;5119704;28;20016;-96
2022/08/02 13:28:42;;;;;;;;;;;36.30;31.20;;;;;;5151490;27;20316;-96
2022/08/02 13:31:07;;;;;;;;;;;35.80;29.40;;;;;;5119285;28;19987;-96
2022/08/02 13:33:33;;;;;;;;;;;35.60;30.80;;;;;;5124361;28;19942;-96
2022/08/02 13:35:59;;;;;;;;;;;35.70;29.40;;;;;;5127299;28;19963;-96
2022/08/02 13:38:26;;;;;;;;;;;35.80;29.20;;;;;;5128163;27;19942;-96
2022/08/02 13:41:07;;;;;;;;;;;36.20;28.70;;;;;;5124871;28;19935;-96
2022/08/02 13:43:33;;;;;;;;;;;36.10;29.20;;;;;;5117854;28;19940;-96
2022/08/02 13:45:58;;;;;;;;;;;36.00;27.20;;;;;;5113306;28;19949;-96
2022/08/02 13:48:24;;;;;;;;;;;36.40;26.20;;;;;;5112717;28;19964;-96
2022/08/02 13:50:50;;;;;;;;;;;37.40;25.20;;;;;;5112439;28;19938;-96
2022/08/02 13:53:15;;;;;;;;;;;37.20;26.60;;;;;;5109647;28;20379;-96
2022/08/02 13:55:41;;;;;;;;;;;37.40;26.40;;;;;;5110956;28;19941;-96
2022/08/02 13:58:06;;;;;;;;;;;38.10;25.90;;;;;;5112769;28;19993;-96
2022/08/02 14:00:32;;;;;;;;;;;38.30;25.90;;;;;;5112476;28;19935;-96
2022/08/02 14:02:57;;;;;;;;;;;39.10;24.50;;;;;;5114819;28;20402;-96
2022/08/02 14:05:29;;;;;;;;;;;39.80;24.70;;;;;;5125340;28;19978;-96
2022/08/02 14:46:02;;;;;;;;;;;39.60;24.30;;;;;;6125235;22;2129337;-96
2022/08/02 15:09:12;;;;;;;;;;;39.70;25.80;;;;;;6067279;22;5309051;-96
2022/08/02 15:16:52;;;;;;;;;;;40.80;25.10;;;;;;6278180;22;19977;-96
2022/08/02 15:19:31;;;;;;;;;;;41.50;23.80;;;;;;6336047;22;20013;-96
2022/08/02 15:21:58;;;;;;;;;;;42.80;23.10;;;;;;6275853;22;19987;-96
2022/08/02 15:24:32;;;;;;;;;;;43.40;22.70;;;;;;6214450;22;19939;-96
2022/08/02 15:27:00;;;;;;;;;;;42.30;23.30;;;;;;6211705;22;19934;-96
2022/08/02 15:29:29;;;;;;;;;;;41.40;24.10;;;;;;6210809;23;19945;-96
2022/08/02 15:31:55;;;;;;;;;;;40.90;24.20;;;;;;6314270;22;19946;-96
2022/08/02 15:34:21;;;;;;;;;;;40.40;25.40;;;;;;6332998;22;20010;-96
2022/08/02 15:36:47;;;;;;;;;;;40.40;25.30;;;;;;6200353;23;19971;-96
2022/08/02 15:39:13;;;;;;;;;;;40.30;25.60;;;;;;6194598;23;19940;-96
2022/08/02 15:41:38;;;;;;;;;;;40.60;26.10;;;;;;6196445;23;19978;-96
2022/08/02 15:44:06;;;;;;;;;;;39.20;27.70;;;;;;6194079;23;19938;-96
2022/08/02 15:46:34;;;;;;;;;;;38.90;28.20;;;;;;6191912;23;19933;-96
2022/08/02 15:49:00;;;;;;;;;;;39.50;27.60;;;;;;6207194;23;19934;-96
2022/08/02 15:51:26;;;;;;;;;;;40.00;26.70;;;;;;6213771;23;19953;-96
2022/08/02 15:53:53;;;;;;;;;;;39.80;26.20;;;;;;6208722;23;19972;-96
2022/08/02 15:58:56;;;;;;;;;;;39.30;27.10;;;;;;6312349;22;19942;-96
2022/08/02 16:04:13;;;;;;;;;;;39.60;26.70;;;;;;6175555;22;19983;-96
2022/08/02 16:06:39;;;;;;;;;;;39.60;26.60;;;;;;6181611;23;19937;-96
2022/08/02 16:09:07;;;;;;;;;;;39.00;27.10;;;;;;6178359;23;19964;-96
2022/08/02 16:11:39;;;;;;;;;;;38.80;27.40;;;;;;6173006;23;19996;-96
2022/08/02 16:14:06;;;;;;;;;;;38.30;27.80;;;;;;6174832;23;19946;-96
2022/08/02 16:16:34;;;;;;;;;;;37.80;28.30;;;;;;6174760;23;19950;-96
2022/08/02 16:19:01;;;;;;;;;;;37.70;28.70;;;;;;6175446;23;19968;-96
2022/08/02 16:21:32;;;;;;;;;;;37.40;29.30;;;;;;6152314;23;19937;-96
2022/08/02 16:23:59;;;;;;;;;;;37.40;29.40;;;;;;6126788;23;19945;-96
2022/08/02 16:26:28;;;;;;;;;;;37.30;31.00;;;;;;6177522;23;19921;-96
2022/08/02 16:40:40;;;;;;;;;;;37.30;31.80;;;;;;6266807;22;2888915;-96